Time;durP1;ratioP1;P1;durP2;ratioP2;P2;SDS_P1;SDS_P2;PMS_P1;PMS_P2;Temp;Humidity;BMP_temperature;BMP_pressure;BME280_temperature;BME280_humidity;BME280_pressure;Samples;Min_cycle;Max_cycle;Signal;HPM_P1;HPM_P2
2021/10/18 00:00:55;;;;;;;3.72;2.80;;;;;;;17.77;67.27;102217.78;4854281;29;20039;-81
2021/10/18 00:03:21;;;;;;;3.75;2.70;;;;;;;17.77;67.59;102207.38;4884934;29;20049;-83
2021/10/18 00:05:46;;;;;;;4.05;2.70;;;;;;;17.76;67.46;102208.22;4885267;29;20033;-81
2021/10/18 00:08:12;;;;;;;4.75;2.55;;;;;;;17.77;67.77;102209.97;4900780;29;20035;-83
2021/10/18 00:10:37;;;;;;;2.60;2.40;;;;;;;17.77;67.55;102207.38;4900540;29;20025;-81
2021/10/18 00:13:03;;;;;;;3.05;2.30;;;;;;;17.76;67.41;102208.22;4901621;29;20478;-82
2021/10/18 00:15:29;;;;;;;4.22;2.80;;;;;;;17.77;67.45;102204.78;4884904;29;20032;-84
2021/10/18 00:17:55;;;;;;;3.33;2.65;;;;;;;17.76;67.65;102209.94;4900330;29;20024;-80
2021/10/18 00:20:22;;;;;;;4.43;2.65;;;;;;;17.75;67.44;102209.09;4900401;29;20029;-82
2021/10/18 00:22:48;;;;;;;3.03;2.42;;;;;;;17.77;67.20;102214.28;4884858;29;20123;-82
2021/10/18 00:25:14;;;;;;;3.33;2.70;;;;;;;17.76;67.44;102217.75;4884713;29;20123;-81
2021/10/18 00:27:40;;;;;;;3.97;2.50;;;;;;;17.77;67.39;102220.38;4869222;29;20033;-82
2021/10/18 00:30:07;;;;;;;3.67;2.38;;;;;;;17.77;67.24;102225.59;4901372;29;20088;-83
2021/10/18 00:32:33;;;;;;;2.78;2.30;;;;;;;17.78;67.38;102221.25;4884471;29;20035;-81
2021/10/18 00:34:58;;;;;;;3.30;2.40;;;;;;;17.77;67.28;102219.50;4884475;29;20036;-81
2021/10/18 00:37:23;;;;;;;3.80;2.75;;;;;;;17.76;67.04;102222.97;4884599;29;20490;-78
2021/10/18 00:39:49;;;;;;;3.13;2.72;;;;;;;17.77;67.46;102219.50;4868848;29;20036;-81
2021/10/18 00:42:15;;;;;;;3.10;2.47;;;;;;;17.77;67.28;102216.88;4901188;29;20486;-82
2021/10/18 00:44:42;;;;;;;3.20;2.53;;;;;;;17.76;67.41;102213.41;4899744;29;20073;-83
2021/10/18 00:47:13;;;;;;;3.97;2.60;;;;;;;17.75;67.42;102210.81;4899908;29;20039;-81
2021/10/18 00:49:38;;;;;;;3.15;2.50;;;;;;;17.78;67.15;102216.03;4884095;29;20036;-81
2021/10/18 00:52:04;;;;;;;3.20;2.38;;;;;;;17.76;67.42;102213.41;4853728;29;20033;-83
2021/10/18 00:54:29;;;;;;;3.75;2.70;;;;;;;17.77;67.13;102217.78;4853448;29;20590;-82
2021/10/18 00:56:55;;;;;;;3.42;2.70;;;;;;;17.77;67.22;102209.06;4883970;29;20047;-79
2021/10/18 00:59:20;;;;;;;3.35;2.42;;;;;;;17.77;67.38;102204.78;4868592;29;20477;-82
2021/10/18 01:01:47;;;;;;;3.95;2.60;;;;;;;17.76;67.31;102205.59;4868408;29;20061;-82
2021/10/18 01:04:14;;;;;;;3.60;2.78;;;;;;;17.75;67.22;102208.22;4899134;29;20024;-80
2021/10/18 01:06:39;;;;;;;2.92;2.58;;;;;;;17.76;67.41;102207.34;4884009;29;20037;-81
2021/10/18 01:09:05;;;;;;;3.10;2.15;;;;;;;17.76;67.35;102207.34;4900808;29;20027;-80
2021/10/18 01:11:30;;;;;;;2.88;2.22;;;;;;;17.77;67.36;102217.78;4899214;29;20113;-79
2021/10/18 01:13:55;;;;;;;3.17;2.58;;;;;;;17.76;67.21;102212.56;4852862;29;20032;-83
2021/10/18 01:16:21;;;;;;;3.00;2.50;;;;;;;17.76;67.15;102208.22;4867821;29;20442;-83
2021/10/18 01:18:46;;;;;;;3.15;2.50;;;;;;;17.76;67.27;102213.41;4899399;29;20495;-81
2021/10/18 01:21:12;;;;;;;2.80;2.50;;;;;;;17.77;67.10;102215.19;4868279;29;20077;-80
2021/10/18 01:23:37;;;;;;;3.42;2.50;;;;;;;17.77;67.25;102214.28;4868002;29;20051;-82
2021/10/18 01:26:03;;;;;;;3.33;2.42;;;;;;;17.77;67.23;102207.38;4883589;29;20025;-83
2021/10/18 01:28:28;;;;;;;2.60;2.05;;;;;;;17.76;67.01;102203.00;4899282;29;20088;-80
2021/10/18 01:30:54;;;;;;;3.85;2.72;;;;;;;17.77;67.08;102202.16;4883826;29;20392;-80
2021/10/18 01:33:20;;;;;;;3.05;2.55;;;;;;;17.77;67.40;102204.78;4883415;29;20025;-82
2021/10/18 01:35:46;;;;;;;2.55;2.22;;;;;;;17.78;67.20;102203.03;4867999;29;20478;-82
2021/10/18 01:38:12;;;;;;;4.30;2.70;;;;;;;17.76;67.09;102195.19;4868022;29;20062;-83
2021/10/18 01:40:37;;;;;;;3.35;2.58;;;;;;;17.76;66.83;102197.78;4883361;29;20037;-80
2021/10/18 01:43:03;;;;;;;2.80;2.45;;;;;;;17.76;67.22;102192.59;4883110;29;20033;-80
2021/10/18 01:45:28;;;;;;;3.90;2.75;;;;;;;17.77;67.23;102190.84;4883146;29;20028;-81
2021/10/18 01:47:54;;;;;;;3.13;2.50;;;;;;;17.77;66.85;102190.84;4898825;29;20028;-80
2021/10/18 01:50:22;;;;;;;3.47;2.35;;;;;;;17.77;67.15;102185.66;4867507;29;20109;-83
2021/10/18 01:52:49;;;;;;;2.90;2.30;;;;;;;17.77;67.24;102188.25;4867790;29;20028;-83
2021/10/18 01:55:15;;;;;;;2.85;2.40;;;;;;;17.76;66.75;102187.38;4883186;29;20469;-82
2021/10/18 01:57:41;;;;;;;2.97;2.60;;;;;;;17.77;66.97;102188.25;4898406;29;20460;-82
2021/10/18 02:00:08;;;;;;;2.92;2.50;;;;;;;17.78;67.05;102192.63;4883330;29;20496;-81
2021/10/18 02:02:34;;;;;;;3.63;2.40;;;;;;;17.77;66.65;102196.06;4883126;29;20083;-83
2021/10/18 02:05:02;;;;;;;2.95;2.38;;;;;;;17.78;67.02;102195.22;4867341;29;20474;-83
2021/10/18 02:07:27;;;;;;;3.58;2.72;;;;;;;17.79;66.86;102195.25;4852882;29;20132;-84
2021/10/18 02:09:53;;;;;;;3.67;2.30;;;;;;;17.78;66.53;102196.09;4867174;29;20112;-83
2021/10/18 02:12:20;;;;;;;3.03;2.30;;;;;;;17.78;67.00;102185.66;4867191;29;20087;-84
2021/10/18 02:14:46;;;;;;;3.13;2.38;;;;;;;17.80;66.91;102188.31;4866626;29;20375;-83
2021/10/18 02:17:11;;;;;;;2.80;2.40;;;;;;;17.79;67.01;102181.31;4899304;29;20039;-84
2021/10/18 02:19:37;;;;;;;3.17;2.53;;;;;;;17.79;67.08;102181.31;4882581;29;20116;-83
2021/10/18 02:22:02;;;;;;;3.15;2.25;;;;;;;17.79;66.53;102184.84;4867506;29;20061;-83
2021/10/18 02:24:27;;;;;;;3.35;2.70;;;;;;;17.78;66.77;102174.38;4882376;29;20028;-85
2021/10/18 02:26:53;;;;;;;2.75;2.45;;;;;;;17.78;66.96;102174.38;4851530;29;20037;-82
2021/10/18 02:29:18;;;;;;;3.15;2.65;;;;;;;17.79;67.05;102177.03;4882489;29;20032;-81
2021/10/18 02:31:44;;;;;;;2.72;2.40;;;;;;;17.81;66.47;102162.28;4866950;29;20450;-80
2021/10/18 02:34:09;;;;;;;3.22;2.70;;;;;;;17.80;66.80;102170.94;4882606;29;20028;-82
2021/10/18 02:36:38;;;;;;;3.20;2.13;;;;;;;17.81;66.60;102171.81;4866854;29;20036;-81
2021/10/18 02:39:06;;;;;;;2.50;2.22;;;;;;;17.80;66.84;102170.06;4882148;29;20051;-79
2021/10/18 02:41:31;;;;;;;3.58;2.55;;;;;;;17.79;66.65;102171.81;4882109;29;20093;-81
2021/10/18 02:43:57;;;;;;;3.47;2.47;;;;;;;17.79;66.85;102174.41;4851197;29;20041;-84
2021/10/18 02:46:25;;;;;;;4.90;2.63;;;;;;;17.82;66.50;102173.59;4882382;29;20033;-84
2021/10/18 02:48:51;;;;;;;2.95;2.50;;;;;;;17.82;66.58;102182.28;4866770;29;20129;-82
2021/10/18 02:51:16;;;;;;;2.75;2.45;;;;;;;17.80;66.57;102177.88;4898730;29;20080;-83
2021/10/18 02:53:41;;;;;;;2.80;2.38;;;;;;;17.80;66.28;102178.75;4881877;29;20092;-83
2021/10/18 02:56:07;;;;;;;3.30;2.45;;;;;;;17.81;66.46;102166.59;4851112;29;20043;-82
2021/10/18 02:58:32;;;;;;;2.83;2.33;;;;;;;17.78;66.64;102170.03;4866648;29;20028;-82
2021/10/18 03:00:57;;;;;;;3.35;2.55;;;;;;;17.80;66.42;102165.72;4882258;29;20037;-81
2021/10/18 03:03:26;;;;;;;3.55;2.63;;;;;;;17.80;66.34;102165.72;4881622;29;20524;-80
2021/10/18 03:05:51;;;;;;;2.85;2.20;;;;;;;17.83;66.22;102173.63;4866604;29;20028;-79
2021/10/18 03:08:19;;;;;;;3.25;2.40;;;;;;;17.82;66.26;102178.81;4882181;29;20096;-82
2021/10/18 03:10:44;;;;;;;2.95;2.50;;;;;;;17.81;66.23;102179.63;4866484;29;20496;-83
2021/10/18 03:13:11;;;;;;;3.38;2.30;;;;;;;17.83;66.09;102172.72;4850844;29;20032;-81
2021/10/18 03:15:36;;;;;;;3.45;2.50;;;;;;;17.83;66.22;102178.84;4881569;29;20067;-83
2021/10/18 03:18:05;;;;;;;3.28;2.60;;;;;;;17.82;66.44;102176.19;4850763;29;20060;-82
2021/10/18 03:20:30;;;;;;;2.40;2.15;;;;;;;17.82;66.23;102168.41;4898313;29;20037;-82
2021/10/18 03:22:56;;;;;;;4.30;2.45;;;;;;;17.83;65.87;102172.72;4866191;29;20036;-81
2021/10/18 03:25:22;;;;;;;3.55;2.75;;;;;;;17.81;65.93;102171.81;4850677;29;20447;-82
2021/10/18 03:27:48;;;;;;;2.78;2.38;;;;;;;17.81;66.18;102172.69;4898395;29;20032;-82
2021/10/18 03:30:13;;;;;;;3.75;2.60;;;;;;;17.83;66.09;102173.63;4881692;29;20028;-79
2021/10/18 03:32:39;;;;;;;3.30;2.60;;;;;;;17.82;66.27;102171.88;4881671;29;20119;-80
2021/10/18 03:35:06;;;;;;;3.33;2.40;;;;;;;17.85;65.96;102166.69;4881498;29;20060;-82
2021/10/18 03:37:31;;;;;;;3.00;2.30;;;;;;;17.86;65.84;102162.38;4881492;29;20056;-81
2021/10/18 03:39:57;;;;;;;3.00;2.40;;;;;;;17.85;65.89;102169.28;4881582;29;20063;-81
2021/10/18 03:42:23;;;;;;;2.63;2.42;;;;;;;17.87;66.03;102179.72;4865822;29;20553;-80
2021/10/18 03:44:51;;;;;;;2.60;2.40;;;;;;;17.86;65.83;102175.38;4865921;29;20051;-81
2021/10/18 03:47:17;;;;;;;3.10;2.38;;;;;;;17.85;65.75;102171.88;4881601;29;20025;-81
2021/10/18 03:49:42;;;;;;;2.50;2.25;;;;;;;17.86;66.04;102173.66;4881495;29;20044;-80
2021/10/18 03:52:08;;;;;;;4.22;2.70;;;;;;;17.83;65.97;102175.34;4881264;29;20512;-81
2021/10/18 03:54:33;;;;;;;4.03;2.58;;;;;;;17.86;65.74;102180.59;4896965;29;20052;-81
2021/10/18 03:56:59;;;;;;;4.40;2.40;;;;;;;17.84;65.91;102180.56;4881362;29;20439;-79
2021/10/18 03:59:25;;;;;;;3.80;2.47;;;;;;;17.85;65.67;102181.44;4881245;29;20171;-80
2021/10/18 04:01:50;;;;;;;3.38;2.50;;;;;;;17.86;65.77;102178.00;4881230;29;20052;-81
2021/10/18 04:04:16;;;;;;;2.75;2.30;;;;;;;17.84;65.90;102183.16;4881298;29;20068;-80
2021/10/18 04:06:41;;;;;;;4.55;2.53;;;;;;;17.87;65.71;102183.19;4896695;29;20500;-80
2021/10/18 04:09:06;;;;;;;4.00;2.30;;;;;;;17.85;65.73;102182.31;4881197;29;20032;-81
2021/10/18 04:11:38;;;;;;;3.75;2.20;;;;;;;17.86;65.88;102172.78;4881174;29;20070;-81
2021/10/18 04:14:05;;;;;;;3.05;2.42;;;;;;;17.86;65.66;102178.00;4851676;29;20040;-78
2021/10/18 04:16:30;;;;;;;2.95;2.35;;;;;;;17.84;65.69;102171.88;4881319;29;20482;-79
2021/10/18 04:18:56;;;;;;;4.07;2.50;;;;;;;17.86;65.91;102178.00;4850478;29;20033;-81
2021/10/18 04:21:21;;;;;;;2.95;2.50;;;;;;;17.83;65.59;102181.44;4850326;29;20068;-80
2021/10/18 04:23:47;;;;;;;2.95;2.28;;;;;;;17.86;65.82;102184.06;4881065;29;20052;-80
2021/10/18 04:26:12;;;;;;;2.88;2.42;;;;;;;17.85;65.29;102184.91;4865852;29;20036;-81
2021/10/18 04:28:37;;;;;;;2.95;2.22;;;;;;;17.86;65.37;102188.41;4881270;29;20443;-81
2021/10/18 04:31:03;;;;;;;2.40;2.17;;;;;;;17.85;65.51;102189.25;4865426;29;20065;-82
2021/10/18 04:33:28;;;;;;;3.15;2.20;;;;;;;17.84;65.23;102185.78;4865385;29;20434;-82
2021/10/18 04:35:54;;;;;;;2.90;2.50;;;;;;;17.87;65.59;102184.94;4865410;29;20393;-82
2021/10/18 04:38:19;;;;;;;3.80;2.60;;;;;;;17.88;65.37;102181.47;4898024;29;20111;-79
2021/10/18 04:40:44;;;;;;;2.55;2.15;;;;;;;17.87;65.38;102182.31;4884375;29;20075;-82
2021/10/18 04:43:10;;;;;;;3.58;2.40;;;;;;;17.85;65.59;102191.84;4899681;29;20031;-76
2021/10/18 04:45:35;;;;;;;3.72;2.67;;;;;;;17.87;65.55;102187.53;4853528;29;20032;-77
2021/10/18 04:48:00;;;;;;;4.40;2.42;;;;;;;17.89;65.44;102191.91;4884214;29;20038;-76
2021/10/18 04:50:26;;;;;;;3.47;2.40;;;;;;;17.88;65.10;102186.69;4884121;29;20040;-77
2021/10/18 04:52:51;;;;;;;3.95;2.50;;;;;;;17.87;65.33;102195.34;4884281;29;20084;-77
2021/10/18 04:55:17;;;;;;;3.38;2.42;;;;;;;17.91;65.37;102201.47;4868804;29;20031;-80
2021/10/18 04:58:04;;;;;;;3.75;2.63;;;;;;;17.89;65.33;102197.09;4884119;29;20024;-77
2021/10/18 05:00:35;;;;;;;3.45;2.50;;;;;;;17.89;65.14;102193.63;4884243;29;20481;-77
2021/10/18 05:03:01;;;;;;;2.63;2.40;;;;;;;17.92;65.55;102205.81;4883804;29;20461;-78
2021/10/18 05:05:26;;;;;;;2.90;2.30;;;;;;;17.93;65.61;102199.75;4883834;29;20146;-77
2021/10/18 05:08:01;;;;;;;3.38;2.58;;;;;;;17.92;65.27;102203.19;4899582;29;20123;-78
2021/10/18 05:10:26;;;;;;;2.58;2.38;;;;;;;17.91;65.76;102198.88;4900761;29;20028;-79
2021/10/18 05:12:52;;;;;;;3.42;2.33;;;;;;;17.92;64.88;102191.09;4868304;29;20044;-80
2021/10/18 05:15:17;;;;;;;2.90;2.22;;;;;;;17.91;64.83;102204.94;4883861;29;20501;-79
2021/10/18 05:17:42;;;;;;;3.45;2.58;;;;;;;17.93;65.35;102207.56;4883960;29;20036;-83
2021/10/18 05:20:08;;;;;;;3.38;2.40;;;;;;;17.91;64.89;102211.88;4883767;29;20089;-85
2021/10/18 05:22:34;;;;;;;5.35;2.47;;;;;;;17.89;65.22;102209.25;4868257;29;20493;-82
2021/10/18 05:24:59;;;;;;;2.80;2.40;;;;;;;17.92;65.19;102208.41;4900628;29;20039;-80
2021/10/18 05:27:24;;;;;;;4.00;2.63;;;;;;;17.89;65.00;102212.72;4883559;29;20115;-78
2021/10/18 05:29:50;;;;;;;12.73;5.20;;;;;;;17.91;65.39;102217.97;4883416;29;20039;-78
2021/10/18 05:32:15;;;;;;;23.08;7.60;;;;;;;17.94;64.91;102217.13;4868023;29;20035;-78
2021/10/18 05:34:41;;;;;;;18.27;6.72;;;;;;;17.92;65.31;102222.34;4868241;29;20132;-77
2021/10/18 05:37:06;;;;;;;16.73;6.38;;;;;;;17.92;65.13;102214.53;4883264;29;20037;-78
2021/10/18 05:39:32;;;;;;;14.35;6.22;;;;;;;17.92;65.63;102209.31;4868106;29;20079;-77
2021/10/18 05:41:57;;;;;;;12.00;5.72;;;;;;;17.91;65.21;102202.34;4900061;29;20509;-79
2021/10/18 05:44:23;;;;;;;15.30;5.53;;;;;;;17.91;65.72;102198.88;4867568;29;20084;-78
2021/10/18 05:46:48;;;;;;;9.15;4.95;;;;;;;17.87;65.71;102201.41;4867601;29;20200;-78
2021/10/18 05:49:14;;;;;;;11.98;5.00;;;;;;;17.88;65.58;102197.13;4897885;29;20127;-78
2021/10/18 05:51:39;;;;;;;11.05;4.93;;;;;;;17.87;65.58;102197.94;4867580;29;20036;-80
2021/10/18 05:54:05;;;;;;;9.02;4.70;;;;;;;17.87;65.74;102201.41;4883164;29;20033;-80
2021/10/18 05:56:31;;;;;;;8.45;4.30;;;;;;;17.87;65.20;102197.94;4899878;29;20028;-81
2021/10/18 05:58:56;;;;;;;9.32;4.57;;;;;;;17.86;65.58;102193.63;4866976;29;20044;-79
2021/10/18 06:01:22;;;;;;;8.98;4.57;;;;;;;17.86;65.46;102198.81;4883000;29;20030;-80
2021/10/18 06:03:47;;;;;;;10.40;4.57;;;;;;;17.90;66.05;102198.00;4898408;29;20088;-78
2021/10/18 06:06:15;;;;;;;8.18;4.22;;;;;;;17.87;65.35;102200.56;4867341;29;20036;-77
2021/10/18 06:08:40;;;;;;;7.22;4.43;;;;;;;17.87;65.26;102205.75;4883338;29;20128;-76
2021/10/18 06:11:06;;;;;;;9.80;4.32;;;;;;;17.88;65.08;102199.72;4882804;29;20123;-78
2021/10/18 06:13:31;;;;;;;7.93;4.43;;;;;;;17.87;65.71;102209.22;4899620;29;20153;-77
2021/10/18 06:15:57;;;;;;;6.95;4.03;;;;;;;17.88;65.40;102215.34;4882737;29;20462;-78
2021/10/18 06:18:22;;;;;;;6.78;3.90;;;;;;;17.88;65.27;102216.22;4867301;29;20046;-80
2021/10/18 06:20:51;;;;;;;8.98;4.80;;;;;;;17.87;65.00;102213.56;4882613;29;20039;-78
2021/10/18 06:23:18;;;;;;;7.80;4.40;;;;;;;17.86;65.11;102211.84;4897987;29;20029;-77
2021/10/18 06:25:43;;;;;;;10.57;4.32;;;;;;;17.85;65.58;102218.75;4882423;29;20033;-77
2021/10/18 06:28:09;;;;;;;6.47;4.28;;;;;;;17.86;65.07;102220.53;4882421;29;20537;-77
2021/10/18 06:30:41;;;;;;;9.32;4.55;;;;;;;17.85;64.96;102220.50;4898364;29;20052;-77
2021/10/18 06:33:07;;;;;;;5.95;4.20;;;;;;;17.87;65.06;102227.47;4866839;29;20032;-77
2021/10/18 06:35:34;;;;;;;6.95;4.05;;;;;;;17.86;65.58;102230.06;4899287;29;20092;-79
2021/10/18 06:38:01;;;;;;;8.85;4.38;;;;;;;17.85;64.82;102230.91;4897788;29;20402;-76
2021/10/18 06:40:27;;;;;;;9.35;4.38;;;;;;;17.88;64.95;102233.56;4882426;29;20035;-75
2021/10/18 06:42:53;;;;;;;6.25;3.95;;;;;;;17.90;64.84;102237.06;4897700;29;20481;-77
2021/10/18 06:45:18;;;;;;;8.77;4.05;;;;;;;17.93;64.50;102236.22;4881894;29;20032;-76
2021/10/18 06:47:44;;;;;;;8.77;3.97;;;;;;;17.92;64.70;102232.75;4897453;29;20123;-78
2021/10/18 06:50:10;;;;;;;7.25;3.90;;;;;;;17.95;64.70;102234.50;4866552;29;20060;-79
2021/10/18 06:52:42;;;;;;;9.52;4.00;;;;;;;17.97;64.59;102238.00;4882044;29;20440;-79
2021/10/18 06:55:12;;;;;;;5.03;3.55;;;;;;;17.98;64.32;102231.94;4883106;29;20027;-79
2021/10/18 06:57:38;;;;;;;5.82;3.85;;;;;;;18.01;64.38;102245.00;4882021;29;20058;-77
2021/10/18 07:00:05;;;;;;;4.25;3.42;;;;;;;18.02;64.25;102244.13;4882415;29;20028;-77
2021/10/18 07:02:31;;;;;;;5.80;3.63;;;;;;;18.03;64.14;102251.06;4881502;29;20052;-77
2021/10/18 07:04:56;;;;;;;6.18;3.65;;;;;;;18.05;64.16;102255.47;4897240;29;20532;-77
2021/10/18 07:07:43;;;;;;;6.78;3.67;;;;;;;18.05;64.05;102255.47;4852536;29;20444;-77
2021/10/18 07:10:09;;;;;;;5.13;3.08;;;;;;;18.06;64.12;102254.59;4898553;29;20027;-79
2021/10/18 07:12:35;;;;;;;6.60;3.65;;;;;;;18.08;64.27;102259.84;4881734;29;20040;-75
2021/10/18 07:15:02;;;;;;;7.40;3.67;;;;;;;18.17;63.55;102261.66;4898385;29;20413;-79
2021/10/18 07:17:28;;;;;;;4.82;3.13;;;;;;;18.20;63.57;102272.09;4898552;29;20029;-76
2021/10/18 07:20:02;;;;;;;5.00;3.35;;;;;;;18.21;63.76;102274.75;4881422;29;20028;-78
2021/10/18 07:22:31;;;;;;;;;;;;;;;18.29;63.42;102269.59;4898895;29;20021;-76
2021/10/18 07:24:57;;;;;;;6.60;3.88;;;;;;;18.27;63.40;102269.59;4897065;29;19915;-77
2021/10/18 07:27:26;;;;;;;5.25;3.00;;;;;;;18.26;63.51;102277.38;4896860;29;20515;-75
2021/10/18 07:29:53;;;;;;;5.50;3.55;;;;;;;18.26;63.54;102267.84;4866766;29;20036;-76
2021/10/18 07:32:18;;;;;;;6.05;3.50;;;;;;;18.30;63.46;102277.44;4881479;29;20020;-77
2021/10/18 07:34:44;;;;;;;4.38;3.33;;;;;;;18.30;63.52;102280.03;4866014;29;20372;-75
2021/10/18 07:37:10;;;;;;;8.50;3.40;;;;;;;18.32;63.66;102279.19;4865868;29;20028;-79
2021/10/18 07:39:36;;;;;;;18.60;7.78;;;;;;;18.27;63.72;102272.19;4881561;29;20124;-75
2021/10/18 07:42:06;;;;;;;19.63;8.40;;;;;;;18.27;63.65;102273.94;4881311;29;20024;-75
2021/10/18 07:44:32;;;;;;;17.38;7.65;;;;;;;18.29;63.79;102275.69;4881619;29;20032;-78
2021/10/18 07:46:59;;;;;;;15.63;6.70;;;;;;;18.33;63.50;102280.94;4881260;29;20049;-75
2021/10/18 07:49:29;;;;;;;16.30;6.50;;;;;;;18.31;63.78;102278.28;4866072;29;20032;-74
2021/10/18 07:51:55;;;;;;;14.43;6.80;;;;;;;18.33;63.78;102278.31;4898079;29;20028;-75
2021/10/18 07:54:24;;;;;;;11.32;5.97;;;;;;;18.36;63.51;102274.03;4896670;29;20032;-75
2021/10/18 07:56:49;;;;;;;13.77;5.90;;;;;;;18.38;63.67;102276.63;4881500;29;20037;-74
2021/10/18 07:59:15;;;;;;;12.70;5.53;;;;;;;18.38;63.85;102266.19;4881322;29;20123;-74
2021/10/18 08:01:40;;;;;;;10.80;5.63;;;;;;;18.41;63.41;102279.28;4865653;29;20057;-77
2021/10/18 08:04:06;;;;;;;11.30;5.68;;;;;;;18.41;63.42;102272.31;4880965;29;20478;-75
2021/10/18 08:06:31;;;;;;;11.80;5.30;;;;;;;18.39;63.55;102270.56;4881118;29;20149;-75
2021/10/18 08:08:56;;;;;;;9.60;4.90;;;;;;;18.41;63.64;102266.25;4897842;29;20107;-75
2021/10/18 08:11:22;;;;;;;12.68;5.28;;;;;;;18.43;63.39;102268.00;4881081;29;20056;-74
2021/10/18 08:13:47;;;;;;;9.75;5.30;;;;;;;18.43;63.55;102252.38;4900279;29;20031;-74
2021/10/18 08:16:14;;;;;;;7.82;4.78;;;;;;;18.45;63.47;102252.38;4869197;29;20131;-75
2021/10/18 08:18:39;;;;;;;10.20;5.65;;;;;;;18.47;63.20;102248.06;4884925;29;20386;-75
2021/10/18 08:21:06;;;;;;;8.82;5.18;;;;;;;18.51;63.13;102249.84;4900222;29;20123;-74
2021/10/18 08:23:35;;;;;;;8.73;5.07;;;;;;;18.47;63.54;102243.72;4900016;29;20055;-74
2021/10/18 08:26:02;;;;;;;7.43;4.88;;;;;;;18.46;63.31;102238.47;4884340;29;20088;-76
2021/10/18 08:28:28;;;;;;;8.32;4.50;;;;;;;18.49;63.12;102222.88;4884741;29;20043;-75
2021/10/18 08:30:54;;;;;;;7.95;4.32;;;;;;;18.47;63.32;102216.78;4900063;29;20036;-75
2021/10/18 08:33:20;;;;;;;7.28;4.57;;;;;;;18.48;63.41;102223.72;4899918;29;20024;-75
2021/10/18 08:35:45;;;;;;;7.45;4.60;;;;;;;18.51;63.35;102218.56;4884306;29;20477;-74
2021/10/18 08:38:17;;;;;;;8.55;4.60;;;;;;;18.51;63.25;102221.16;4884466;29;20033;-76
2021/10/18 08:41:07;;;;;;;7.32;4.65;;;;;;;18.50;63.55;102217.66;4870427;29;20558;-75
2021/10/18 08:44:14;;;;;;;8.38;4.78;;;;;;;18.54;63.12;102220.31;4886643;29;20064;-76
2021/10/18 08:46:18;;;;;;;8.55;4.65;;;;;;;18.57;63.31;102225.53;4886933;29;20028;-76
2021/10/18 08:48:49;;;;;;;10.55;4.28;;;;;;;18.68;63.18;102221.28;4900920;29;20039;-76
2021/10/18 08:51:14;;;;;;;8.25;4.35;;;;;;;18.92;62.14;102223.22;4900994;29;20466;-76
2021/10/18 08:53:40;;;;;;;10.10;4.70;;;;;;;18.97;62.16;102220.69;4884024;29;20088;-76
2021/10/18 08:56:05;;;;;;;16.83;5.10;;;;;;;18.90;63.07;102228.47;4868497;29;20032;-80
2021/10/18 08:58:30;;;;;;;9.93;4.50;;;;;;;18.82;64.77;102227.53;4883944;29;20029;-82
2021/10/18 09:00:56;;;;;;;11.60;5.13;;;;;;;18.78;65.59;102219.66;4853048;29;20032;-84
2021/10/18 09:03:31;;;;;;;11.13;4.85;;;;;;;18.80;64.44;102217.94;4868053;29;20517;-85
2021/10/18 09:06:14;;;;;;;8.52;4.72;;;;;;;18.71;64.41;102236.97;4900702;29;20025;-83
2021/10/18 09:08:40;;;;;;;;;;;;;;;18.66;64.28;102236.03;4884458;29;20043;-82
2021/10/18 09:11:15;;;;;;;7.07;4.68;;;;;;;18.63;64.33;102236.03;4883937;29;20439;-84
2021/10/18 09:13:44;;;;;;;9.13;4.57;;;;;;;18.59;64.33;102224.69;4883853;29;20024;-83
2021/10/18 09:16:11;;;;;;;8.95;4.80;;;;;;;18.60;64.35;102230.81;4899597;29;20080;-85
2021/10/18 09:18:38;;;;;;;9.00;5.00;;;;;;;18.59;64.93;102222.09;4885047;29;20040;-83
2021/10/18 09:21:04;;;;;;;7.25;4.80;;;;;;;18.60;64.11;102222.97;4900624;29;20024;-83
2021/10/18 09:23:37;;;;;;;8.43;4.20;;;;;;;18.62;64.42;102229.09;4867967;29;20028;-82
2021/10/18 09:26:08;;;;;;;7.07;4.93;;;;;;;18.64;64.94;102232.56;4883179;29;20044;-83
2021/10/18 09:28:35;;;;;;;7.82;4.65;;;;;;;18.63;64.33;102228.22;4900548;29;20488;-84
2021/10/18 09:31:16;;;;;;;9.00;4.57;;;;;;;18.64;64.24;102235.16;4900763;29;20108;-84
2021/10/18 09:33:48;;;;;;;7.65;4.70;;;;;;;18.67;63.98;102233.47;4883384;29;20507;-84
2021/10/18 09:36:20;;;;;;;7.32;4.40;;;;;;;18.65;64.35;102229.09;4885001;29;20530;-82
2021/10/18 09:38:48;;;;;;;7.30;4.40;;;;;;;18.65;64.27;102232.56;4884532;29;20512;-85
2021/10/18 09:41:14;;;;;;;6.88;4.53;;;;;;;18.67;65.03;102233.47;4883835;29;20036;-86
2021/10/18 09:43:51;;;;;;;6.22;4.63;;;;;;;18.64;64.34;102228.22;4883630;29;20381;-85
2021/10/18 09:46:20;;;;;;;7.10;4.45;;;;;;;18.63;64.40;102223.84;4883707;29;20047;-85
2021/10/18 10:53:31;;;;;;;7.35;4.50;;;;;;;18.65;64.09;102161.31;4899503;29;20028;-83
2021/10/18 10:56:17;;;;;;;6.40;4.43;;;;;;;18.67;64.46;102162.19;4899485;29;20036;-82
2021/10/18 10:58:53;;;;;;;4.70;4.03;;;;;;;18.67;64.12;102164.81;4882421;29;20378;-82
2021/10/18 11:01:43;;;;;;;9.07;4.10;;;;;;;18.67;64.30;102149.16;4882169;29;20028;-82
2021/10/18 11:04:45;;;;;;;6.22;4.45;;;;;;;18.68;64.14;102130.03;4898208;29;20028;-84
2021/10/18 11:07:16;;;;;;;8.43;4.57;;;;;;;18.65;67.15;102114.38;4881978;29;20088;-86
2021/10/18 11:10:00;;;;;;;7.55;4.82;;;;;;;18.74;66.91;102127.47;4882078;29;20036;-84
2021/10/18 11:12:38;;;;;;;12.15;5.07;;;;;;;18.74;64.46;102124.00;4897443;29;20036;-85
2021/10/18 11:15:07;;;;;;;11.13;5.07;;;;;;;18.66;65.19;102114.41;4898856;29;20024;-85
2021/10/18 11:17:36;;;;;;;10.18;4.70;;;;;;;18.64;65.42;102123.03;4882054;29;20028;-85
2021/10/18 11:20:04;;;;;;;7.35;4.97;;;;;;;18.60;66.34;102116.09;4897198;29;20031;-83
2021/10/18 11:22:41;;;;;;;6.80;5.10;;;;;;;18.59;66.38;102115.19;4896795;29;20470;-86
2021/10/18 11:25:23;;;;;;;5.60;4.60;;;;;;;18.58;66.17;102117.81;4898691;29;20032;-82
2021/10/18 11:27:55;;;;;;;7.00;4.95;;;;;;;18.56;66.44;102111.72;4897271;29;20032;-83
2021/10/18 11:30:22;;;;;;;6.82;4.95;;;;;;;18.56;66.64;102124.75;4898836;29;20111;-84
2021/10/18 11:32:58;;;;;;;6.40;4.50;;;;;;;18.55;67.13;102115.16;4881796;29;20036;-83
2021/10/18 11:35:24;;;;;;;6.43;4.88;;;;;;;18.53;67.12;102119.50;4881763;29;20025;-84
2021/10/18 11:38:00;;;;;;;9.60;4.97;;;;;;;18.53;66.30;102125.59;4881534;29;20112;-86
2021/10/18 11:40:38;;;;;;;9.48;5.18;;;;;;;18.53;69.02;102117.78;4882666;29;20032;-84
2021/10/18 11:43:09;;;;;;;6.43;4.70;;;;;;;18.52;67.30;102105.59;4881674;29;20031;-83
2021/10/18 11:45:40;;;;;;;6.22;4.95;;;;;;;18.53;67.21;102104.75;4898437;29;20164;-84
2021/10/18 11:48:17;;;;;;;6.05;4.70;;;;;;;18.53;66.23;102096.94;4882694;29;20028;-83
2021/10/18 11:50:47;;;;;;;6.85;4.57;;;;;;;18.53;66.77;102086.50;4901587;29;20035;-82
2021/10/18 11:53:20;;;;;;;6.68;4.88;;;;;;;18.55;67.25;102087.34;4885398;29;20039;-81
2021/10/18 11:55:53;;;;;;;6.53;4.85;;;;;;;18.54;67.46;102096.06;4902220;29;20028;-84
2021/10/18 11:58:23;;;;;;;7.50;4.57;;;;;;;18.57;66.82;102100.41;4900820;29;20501;-84
2021/10/18 12:01:25;;;;;;;5.88;4.68;;;;;;;18.53;66.67;102107.34;4900773;29;20111;-83
2021/10/18 12:03:58;;;;;;;6.07;4.65;;;;;;;18.54;67.49;102100.41;4810852;29;20054;-85
2021/10/18 12:06:23;;;;;;;6.13;4.68;;;;;;;18.55;67.42;102082.13;4857719;29;20037;-83
2021/10/18 12:08:54;;;;;;;5.63;4.43;;;;;;;18.55;67.05;102092.56;4866443;29;20037;-84
2021/10/18 12:11:20;;;;;;;6.38;5.00;;;;;;;18.56;67.54;102091.72;4867232;29;20035;-83
2021/10/18 12:13:45;;;;;;;6.53;4.88;;;;;;;18.56;67.14;102103.91;4851209;29;20386;-83
2021/10/18 12:16:19;;;;;;;6.82;5.05;;;;;;;18.55;67.12;102100.38;4835537;29;20060;-81
2021/10/18 12:18:51;;;;;;;7.20;4.85;;;;;;;18.56;67.03;102096.06;4866560;29;20040;-82
2021/10/18 12:21:25;;;;;;;5.30;4.57;;;;;;;18.55;67.89;102083.88;4866320;29;20043;-80
2021/10/18 12:23:56;;;;;;;6.55;4.80;;;;;;;18.57;67.73;102100.41;4882739;29;20178;-81
2021/10/18 12:26:32;;;;;;;5.97;4.70;;;;;;;18.55;66.72;102109.94;4882703;29;20028;-81
2021/10/18 12:29:03;;;;;;;6.38;4.75;;;;;;;18.53;67.63;102111.69;4866110;29;20040;-80
2021/10/18 12:31:43;;;;;;;6.70;4.97;;;;;;;18.54;67.12;102113.44;4882881;29;20085;-85